Time;durP1;ratioP1;P1;durP2;ratioP2;P2;SDS_P1;SDS_P2;PMS_P1;PMS_P2;Temp;Humidity;BMP_temperature;BMP_pressure;BME280_temperature;BME280_humidity;BME280_pressure;Samples;Min_cycle;Max_cycle;Signal;HPM_P1;HPM_P2
2023/07/09 00:02:36;;;;;;;9.77;4.20;;;;;;;;;;5056713;23;20053;-80
2023/07/09 00:05:02;;;;;;;8.13;3.83;;;;;;;;;;4890497;29;20127;-80
2023/07/09 00:07:31;;;;;;;8.07;4.03;;;;;;;;;;4885452;29;20017;-80
2023/07/09 00:10:04;;;;;;;6.80;4.05;;;;;;;;;;4886360;29;20027;-79
2023/07/09 00:12:30;;;;;;;7.63;3.85;;;;;;;;;;4886690;29;20041;-78
2023/07/09 00:14:59;;;;;;;9.18;3.80;;;;;;;;;;4889715;29;20128;-80
2023/07/09 00:17:31;;;;;;;6.55;3.70;;;;;;;;;;4903079;29;20489;-80
2023/07/09 00:19:57;;;;;;;6.68;3.70;;;;;;;;;;4902778;29;20067;-79
2023/07/09 00:22:24;;;;;;;8.15;4.28;;;;;;;;;;4902412;29;20507;-79
2023/07/09 00:24:51;;;;;;;10.25;3.60;;;;;;;;;;4887561;29;20484;-80
2023/07/09 00:27:18;;;;;;;7.35;4.07;;;;;;;;;;4869724;29;20167;-80
2023/07/09 00:29:47;;;;;;;8.57;4.13;;;;;;;;;;4885316;29;20030;-79
2023/07/09 00:32:15;;;;;;;6.45;3.85;;;;;;;;;;4901829;29;20029;-79
2023/07/09 00:34:41;;;;;;;7.93;4.05;;;;;;;;;;4899686;29;20032;-79
2023/07/09 00:37:13;;;;;;;6.20;4.00;;;;;;;;;;4886274;29;20028;-79
2023/07/09 00:39:42;;;;;;;9.63;4.40;;;;;;;;;;4884535;29;20035;-79
2023/07/09 00:42:19;;;;;;;7.20;4.20;;;;;;;;;;4899886;29;20047;-79
2023/07/09 00:44:46;;;;;;;8.43;3.92;;;;;;;;;;4901371;29;20092;-79
2023/07/09 00:47:18;;;;;;;10.10;4.30;;;;;;;;;;4886654;29;20449;-80
2023/07/09 00:49:48;;;;;;;7.07;3.58;;;;;;;;;;4902917;29;20028;-78
2023/07/09 00:52:23;;;;;;;9.02;3.90;;;;;;;;;;4895633;29;20031;-77
2023/07/09 00:54:51;;;;;;;7.25;4.15;;;;;;;;;;4887563;29;20553;-81
2023/07/09 00:57:19;;;;;;;7.10;4.03;;;;;;;;;;4877666;29;20033;-80
2023/07/09 00:59:51;;;;;;;6.78;4.10;;;;;;;;;;4902167;29;20029;-80
2023/07/09 01:02:23;;;;;;;8.43;4.10;;;;;;;;;;4882879;29;20041;-79
2023/07/09 01:04:51;;;;;;;7.60;4.40;;;;;;;;;;4900915;29;20099;-80
2023/07/09 01:07:19;;;;;;;7.85;4.07;;;;;;;;;;4907046;29;20024;-79
2023/07/09 01:09:46;;;;;;;6.90;4.18;;;;;;;;;;4885518;29;20020;-80
2023/07/09 01:12:14;;;;;;;6.82;3.60;;;;;;;;;;4883453;29;20032;-79
2023/07/09 01:14:43;;;;;;;7.25;4.10;;;;;;;;;;4877606;29;20039;-79
2023/07/09 01:17:11;;;;;;;8.25;4.22;;;;;;;;;;4885079;29;20032;-79
2023/07/09 01:19:44;;;;;;;8.98;3.97;;;;;;;;;;4900733;29;20120;-83
2023/07/09 01:22:12;;;;;;;7.72;4.57;;;;;;;;;;4900715;29;20481;-79
2023/07/09 01:24:59;;;;;;;9.18;4.55;;;;;;;;;;4897084;29;20033;-80
2023/07/09 01:27:29;;;;;;;8.82;4.43;;;;;;;;;;4898295;29;20021;-80
2023/07/09 01:29:56;;;;;;;;;;;22.40;99.90;;;;;;4903050;29;20052;-79
2023/07/09 01:32:22;;;;;;;8.63;4.40;;;;;;;;;;4895545;29;20383;-78
2023/07/09 01:34:50;;;;;;;9.15;4.25;;;;;;;;;;4901957;29;20032;-81
2023/07/09 01:37:21;;;;;;;6.55;4.43;;;;;;;;;;4901536;29;20052;-80
2023/07/09 01:39:49;;;;;;;7.22;4.43;;;;;;;;;;4891643;29;20036;-79
2023/07/09 01:42:17;;;;;;;9.18;4.40;;;;;;;;;;4883441;29;20157;-80
2023/07/09 01:44:43;;;;;;;9.13;4.13;;;;;;;;;;4884125;29;20024;-81
2023/07/09 01:47:10;;;;;;;7.75;3.90;;;;;;;;;;4878111;29;20028;-80
2023/07/09 01:49:36;;;;;;;7.18;4.05;;;;;;;;;;4895836;29;20269;-80
2023/07/09 01:52:03;;;;;;;7.13;4.38;;;;;;;;;;4880797;29;20032;-80
2023/07/09 01:54:31;;;;;;;8.07;4.68;;;;;;;;;;4900548;29;20036;-80
2023/07/09 01:57:17;;;;;;;8.57;4.60;;;;;;;;;;4903307;29;20032;-82
2023/07/09 01:59:44;;;;;;;7.03;4.55;;;;;;;;;;4896624;29;20057;-78
2023/07/09 02:02:23;;;;;;;7.07;4.35;;;;;;;;;;4900420;29;20054;-80
2023/07/09 02:04:53;;;;;;;6.88;4.20;;;;;;;;;;4897831;29;20065;-79
2023/07/09 02:07:20;;;;;;;8.00;4.45;;;;;;;;;;4899460;29;20043;-79
2023/07/09 02:09:46;;;;;;;6.75;4.32;;;;;;;;;;4896119;29;20485;-80
2023/07/09 02:12:13;;;;;;;9.10;4.88;;;;;;;;;;4900182;29;20029;-79
2023/07/09 02:14:42;;;;;;;7.00;4.32;;;;;;;;;;4893448;29;20025;-81
2023/07/09 02:17:09;;;;;;;7.32;4.32;;;;;;;;;;4878492;29;20029;-79
2023/07/09 02:19:37;;;;;;;7.60;4.38;;;;;;;;;;4885244;29;20160;-79
2023/07/09 02:22:19;;;;;;;10.02;4.93;;;;;;;;;;4883240;29;20051;-79
2023/07/09 02:24:45;;;;;;;7.28;4.63;;;;;;;;;;4875616;29;20029;-79
2023/07/09 02:27:11;;;;;;;10.25;4.95;;;;;;;;;;4882735;29;20131;-79
2023/07/09 02:29:38;;;;;;;7.72;4.22;;;;;;;;;;4898801;29;20028;-79
2023/07/09 02:32:04;;;;;;;8.57;4.45;;;;;;;;;;4881118;29;20413;-80
2023/07/09 02:34:31;;;;;;;8.75;4.90;;;;;;;;;;4883075;29;20036;-79
2023/07/09 02:36:58;;;;;;;7.43;4.38;;;;;;;;;;4902276;29;20029;-78
2023/07/09 02:39:25;;;;;;;10.25;4.70;;;;;;;;;;4903791;29;20087;-81
2023/07/09 02:41:51;;;;;;;7.55;4.70;;;;;;;;;;4886691;29;20035;-79
2023/07/09 02:44:18;;;;;;;6.97;4.57;;;;;;;;;;4889642;29;20041;-79
2023/07/09 02:46:45;;;;;;;8.23;4.72;;;;;;;;;;4886944;29;20032;-78
2023/07/09 02:49:12;;;;;;;8.60;4.50;;;;;;;;;;4883194;29;20044;-78
2023/07/09 02:51:38;;;;;;;9.70;4.88;;;;;;;;;;4892051;29;20088;-78
2023/07/09 02:54:07;;;;;;;7.25;4.30;;;;;;;;;;4892616;29;20028;-79
2023/07/09 02:56:34;;;;;;;6.90;4.63;;;;;;;;;;4885838;29;20033;-79
2023/07/09 02:59:00;;;;;;;6.80;4.28;;;;;;;;;;4881245;29;20478;-79
2023/07/09 03:01:48;;;;;;;7.22;5.43;;;;;;;;;;4901476;29;20445;-78
2023/07/09 03:04:14;;;;;;;11.23;5.30;;;;;;;;;;4902204;29;20529;-79
2023/07/09 03:06:41;;;;;;;9.70;5.85;;;;;;;;;;4884231;29;20092;-81
2023/07/09 03:09:07;;;;;;;8.98;5.40;;;;;;;;;;4901346;29;20057;-79
2023/07/09 03:11:34;;;;;;;6.35;4.38;;;;;;;;;;4883622;29;20104;-78
2023/07/09 03:14:00;;;;;;;6.78;4.22;;;;;;;;;;4884479;29;20036;-79
2023/07/09 03:16:27;;;;;;;9.52;4.78;;;;;;;;;;4884479;29;20044;-79
2023/07/09 03:18:54;;;;;;;7.13;4.55;;;;;;;;;;4886046;29;20060;-78
2023/07/09 03:21:23;;;;;;;8.05;4.88;;;;;;;;;;4902550;29;20033;-77
2023/07/09 03:23:49;;;;;;;10.52;5.10;;;;;;;;;;4882357;29;20032;-79
2023/07/09 03:26:15;;;;;;;11.25;5.03;;;;;;;;;;4903343;29;20410;-79
2023/07/09 03:28:41;;;;;;;9.32;5.10;;;;;;;;;;4885143;29;20123;-80
2023/07/09 03:31:10;;;;;;;7.28;4.72;;;;;;;;;;4883209;29;20131;-79
2023/07/09 03:33:39;;;;;;;7.15;4.93;;;;;;;;;;4901967;29;20035;-82
2023/07/09 03:36:05;;;;;;;8.70;5.07;;;;;;;;;;4888634;29;20445;-78
2023/07/09 03:38:31;;;;;;;13.40;5.07;;;;;;;;;;4868354;29;20033;-80
2023/07/09 03:40:58;;;;;;;7.93;4.95;;;;;;;;;;4902432;29;20043;-79
2023/07/09 03:43:24;;;;;;;6.88;4.78;;;;;;;;;;4884594;29;20036;-78
2023/07/09 03:45:51;;;;;;;7.43;4.70;;;;;;;;;;4885515;29;20033;-79
2023/07/09 03:48:18;;;;;;;6.78;4.45;;;;;;;;;;4902648;29;20020;-79
2023/07/09 03:50:47;;;;;;;6.75;4.60;;;;;;;;;;4898376;29;20420;-79
2023/07/09 03:53:14;;;;;;;7.13;4.50;;;;;;;;;;4904157;29;20037;-77
2023/07/09 03:55:40;;;;;;;7.43;4.13;;;;;;;;;;4900946;29;20299;-79
2023/07/09 03:58:06;;;;;;;7.80;4.78;;;;;;;;;;4883129;29;20076;-79
2023/07/09 04:00:33;;;;;;;7.82;4.60;;;;;;;;;;4902376;29;20028;-79
2023/07/09 04:02:59;;;;;;;8.18;4.95;;;;;;;;;;4898152;29;20032;-79
2023/07/09 04:05:26;;;;;;;7.28;4.90;;;;;;;;;;4900828;29;20035;-80
2023/07/09 04:07:52;;;;;;;11.13;4.85;;;;;;;;;;4900932;29;20034;-79
2023/07/09 04:10:19;;;;;;;8.63;4.68;;;;;;;;;;4885862;29;20088;-79
2023/07/09 04:12:45;;;;;;;8.05;4.90;;;;;;;;;;4899310;29;20489;-79
2023/07/09 04:15:13;;;;;;;13.88;5.00;;;;;;;;;;4903575;29;20085;-78
2023/07/09 04:17:40;;;;;;;8.35;4.55;;;;;;;;;;4900163;29;20032;-78
2023/07/09 04:20:07;;;;;;;9.02;5.05;;;;;;;;;;4898360;29;20029;-79
2023/07/09 04:22:34;;;;;;;11.77;4.57;;;;;;;;;;4899526;29;20266;-77
2023/07/09 04:25:04;;;;;;;8.45;5.32;;;;;;;;;;4884860;29;20029;-79
2023/07/09 04:27:31;;;;;;;7.90;5.20;;;;;;;;;;4899688;29;20028;-79
2023/07/09 04:29:57;;;;;;;9.82;4.93;;;;;;;;;;4903808;29;20033;-78
2023/07/09 04:32:23;;;;;;;7.82;5.20;;;;;;;;;;4888715;29;20024;-78
2023/07/09 04:34:50;;;;;;;7.40;5.30;;;;;;;;;;4885463;29;20484;-78
2023/07/09 04:37:21;;;;;;;9.55;5.35;;;;;;;;;;4887045;29;20036;-83
2023/07/09 04:39:47;;;;;;;8.82;4.95;;;;;;;;;;4905801;29;20039;-79
2023/07/09 04:42:16;;;;;;;8.95;4.90;;;;;;;;;;4888546;29;20051;-79
2023/07/09 04:44:43;;;;;;;8.85;4.97;;;;;;;;;;4885797;29;20025;-79
2023/07/09 04:47:09;;;;;;;7.47;4.70;;;;;;;;;;4900922;29;20021;-79
2023/07/09 04:49:38;;;;;;;9.52;5.20;;;;;;;;;;4886395;29;20024;-79
2023/07/09 04:52:05;;;;;;;8.35;4.78;;;;;;;;;;4883621;29;20041;-79
2023/07/09 04:54:33;;;;;;;8.55;5.60;;;;;;;;;;4900781;29;20508;-78
2023/07/09 04:57:02;;;;;;;9.15;5.20;;;;;;;;;;4886505;29;20033;-78
2023/07/09 04:59:31;;;;;;;8.90;5.20;;;;;;;;;;4899307;29;20036;-77
2023/07/09 05:01:58;;;;;;;9.00;5.30;;;;;;;;;;4882929;29;20482;-80
2023/07/09 05:07:00;;;;;;;10.27;5.50;;;;;;;;;;5058561;23;20055;-82
2023/07/09 05:09:26;;;;;;;11.02;5.22;;;;;;;;;;4922837;29;20031;-82
2023/07/09 05:11:55;;;;;;;7.63;5.63;;;;;;;;;;4921951;29;20031;-80
2023/07/09 05:14:24;;;;;;;8.68;5.13;;;;;;;;;;4936624;29;20039;-81
2023/07/09 05:16:50;;;;;;;10.82;5.03;;;;;;;;;;4934144;29;20063;-79
2023/07/09 05:19:19;;;;;;;7.97;5.32;;;;;;;;;;4937139;29;20487;-80
2023/07/09 05:21:45;;;;;;;7.55;4.80;;;;;;;;;;4919246;29;20036;-80
2023/07/09 05:24:11;;;;;;;9.80;5.10;;;;;;;;;;4919104;29;20035;-79
2023/07/09 05:26:44;;;;;;;8.57;4.97;;;;;;;;;;4937499;29;20038;-82
2023/07/09 05:29:10;;;;;;;6.82;4.57;;;;;;;;;;4936539;29;20035;-80
2023/07/09 05:31:41;;;;;;;7.43;4.47;;;;;;;;;;4917589;29;20488;-79
2023/07/09 05:34:10;;;;;;;8.88;4.55;;;;;;;;;;4913908;29;20504;-79
2023/07/09 05:36:37;;;;;;;6.10;4.40;;;;;;;;;;4929407;29;20099;-79
2023/07/09 05:39:03;;;;;;;9.38;4.78;;;;;;;;;;4917118;29;20395;-79
2023/07/09 05:41:29;;;;;;;7.93;4.45;;;;;;;;;;4914282;29;20032;-79
2023/07/09 05:44:11;;;;;;;7.18;4.40;;;;;;;;;;4939546;29;20024;-80
2023/07/09 05:46:39;;;;;;;9.25;4.47;;;;;;;;;;4932877;29;20028;-80
2023/07/09 05:49:06;;;;;;;6.13;4.35;;;;;;;;;;4904185;29;20502;-79
2023/07/09 05:51:32;;;;;;;7.45;4.97;;;;;;;;;;4915541;29;20036;-81
2023/07/09 05:54:02;;;;;;;7.28;4.20;;;;;;;;;;4934870;29;20036;-81
2023/07/09 05:56:31;;;;;;;8.77;4.85;;;;;;;;;;4914729;29;20038;-79
2023/07/09 05:58:58;;;;;;;9.77;5.18;;;;;;;;;;4918849;29;20032;-79
2023/07/09 06:01:25;;;;;;;9.20;4.30;;;;;;;;;;4915612;29;20040;-78
2023/07/09 06:03:51;;;;;;;9.93;4.72;;;;;;;;;;4921155;29;20020;-79
2023/07/09 06:06:17;;;;;;;9.50;4.70;;;;;;;;;;4917627;29;20038;-78
2023/07/09 06:08:46;;;;;;;6.40;4.65;;;;;;;;;;4922260;29;20029;-78
2023/07/09 06:11:12;;;;;;;6.75;4.40;;;;;;;;;;4920419;29;20024;-79
2023/07/09 06:13:42;;;;;;;7.82;4.55;;;;;;;;;;4930760;29;20032;-79
2023/07/09 06:16:11;;;;;;;8.90;4.68;;;;;;;;;;4918546;29;20195;-78
2023/07/09 06:18:38;;;;;;;6.22;4.53;;;;;;;;;;4924825;29;20070;-78
2023/07/09 06:21:04;;;;;;;8.15;4.57;;;;;;;;;;4940275;29;20236;-78
2023/07/09 06:23:33;;;;;;;7.72;4.53;;;;;;;;;;4939707;29;20106;-79
2023/07/09 06:25:59;;;;;;;8.87;4.23;;;;;;;;;;4936434;29;20031;-79
2023/07/09 06:28:29;;;;;;;7.55;4.78;;;;;;;;;;4941041;29;20272;-79
2023/07/09 06:30:56;;;;;;;8.98;4.75;;;;;;;;;;4932921;29;20031;-79
2023/07/09 06:33:26;;;;;;;8.43;4.70;;;;;;;;;;4923815;29;20036;-79
2023/07/09 06:35:54;;;;;;;7.63;4.50;;;;;;;;;;4929156;29;20028;-81
2023/07/09 06:38:21;;;;;;;7.20;4.60;;;;;;;;;;4931540;29;20028;-79
2023/07/09 06:40:47;;;;;;;6.70;4.20;;;;;;;;;;4911975;29;20056;-80
2023/07/09 06:43:13;;;;;;;8.55;4.60;;;;;;;;;;4917420;29;20055;-79
2023/07/09 06:46:15;;;;;;;8.02;4.60;;;25.60;99.90;;;;;;4937832;29;20027;-80
2023/07/09 06:48:41;;;;;;;7.65;4.47;;;;;;;;;;4934141;29;20030;-79
2023/07/09 06:51:07;;;;;;;6.78;4.70;;;;;;;;;;4937115;29;20028;-79
2023/07/09 06:53:34;;;;;;;10.45;4.07;;;;;;;;;;4929371;29;20039;-79
2023/07/09 06:56:00;;;;;;;6.65;4.20;;;;;;;;;;4921629;29;20063;-79
2023/07/09 06:58:27;;;;;;;7.65;4.50;;;;;;;;;;4908923;29;20032;-80
2023/07/09 07:00:55;;;;;;;6.78;4.35;;;26.50;99.90;;;;;;4901758;29;20527;-80
2023/07/09 07:03:23;;;;;;;7.15;4.10;;;;;;;;;;4921066;29;20031;-81
2023/07/09 07:05:50;;;;;;;7.00;4.65;;;;;;;;;;4925098;29;20031;-80
2023/07/09 07:08:17;;;;;;;8.00;4.35;;;26.50;99.90;;;;;;4920544;29;20119;-82
2023/07/09 07:10:44;;;;;;;7.60;4.82;;;;;;;;;;4921690;29;20032;-80
2023/07/09 07:13:10;;;;;;;7.50;4.47;;;;;;;;;;4917111;29;20142;-81
2023/07/09 07:15:38;;;;;;;7.10;4.25;;;;;;;;;;4934758;29;20032;-80
2023/07/09 07:18:05;;;;;;;6.43;4.32;;;;;;;;;;4937902;29;20047;-80
2023/07/09 07:20:32;;;;;;;7.85;4.93;;;;;;;;;;4930841;29;20047;-80
2023/07/09 07:22:58;;;;;;;8.02;4.70;;;;;;;;;;4933007;29;20038;-82
2023/07/09 07:25:25;;;;;;;8.68;4.57;;;;;;;;;;4931437;29;20023;-81
2023/07/09 07:27:51;;;;;;;8.05;4.32;;;;;;;;;;4913907;29;20070;-80
2023/07/09 07:30:17;;;;;;;8.73;4.45;;;;;;;;;;4919876;29;20028;-81
2023/07/09 07:32:48;;;;;;;7.18;3.90;;;27.30;99.60;;;;;;4931492;29;20130;-80
2023/07/09 07:35:15;;;;;;;6.80;4.57;;;;;;;;;;4921684;29;20024;-80
2023/07/09 07:37:41;;;;;;;6.47;4.68;;;27.50;99.40;;;;;;4933987;29;20118;-81
2023/07/09 07:40:09;;;;;;;6.30;4.20;;;27.60;99.30;;;;;;4918830;29;20035;-80
2023/07/09 07:42:35;;;;;;;8.57;4.80;;;27.70;99.10;;;;;;4905338;29;20051;-82
2023/07/09 07:45:02;;;;;;;9.00;4.60;;;;;;;;;;4928219;29;20027;-79
2023/07/09 07:47:28;;;;;;;7.28;4.70;;;;;;;;;;4919922;29;20547;-80
2023/07/09 07:49:54;;;;;;;8.13;4.43;;;;;;;;;;4933977;29;20048;-80
2023/07/09 07:52:20;;;;;;;7.35;4.80;;;;;;;;;;4918440;29;20535;-80
2023/07/09 07:54:47;;;;;;;7.68;4.82;;;;;;;;;;4935641;29;20488;-79
2023/07/09 07:57:13;;;;;;;7.18;4.55;;;;;;;;;;4914566;29;20031;-79
2023/07/09 07:59:39;;;;;;;8.32;4.63;;;;;;;;;;4917095;29;20032;-80
2023/07/09 08:02:09;;;;;;;6.47;4.10;;;28.30;98.40;;;;;;4931916;29;20094;-80
2023/07/09 08:04:35;;;;;;;8.85;4.80;;;;;;;;;;4930979;29;20034;-80
2023/07/09 08:07:01;;;;;;;8.57;4.38;;;28.40;98.50;;;;;;4917675;29;20040;-80
2023/07/09 08:09:27;;;;;;;12.43;5.85;;;28.50;98.40;;;;;;4929248;29;20032;-82
2023/07/09 08:11:53;;;;;;;10.18;4.85;;;;;;;;;;4927145;29;20051;-82
2023/07/09 08:14:19;;;;;;;8.13;4.57;;;;;;;;;;4934497;29;20035;-84
2023/07/09 08:16:46;;;;;;;8.05;4.20;;;;;;;;;;4937796;29;20488;-86
2023/07/09 08:19:12;;;;;;;8.52;4.90;;;;;;;;;;4923672;29;20050;-83
2023/07/09 08:21:38;;;;;;;7.03;4.75;;;;;;;;;;4923621;29;20032;-85
2023/07/09 08:24:04;;;;;;;6.72;4.40;;;29.20;97.20;;;;;;4939119;29;20551;-83
2023/07/09 08:26:31;;;;;;;6.40;4.38;;;;;;;;;;4917853;29;20048;-84
2023/07/09 08:28:57;;;;;;;8.70;4.45;;;;;;;;;;4916563;29;20097;-82
2023/07/09 08:31:23;;;;;;;8.48;4.13;;;;;;;;;;4919379;29;20031;-88
2023/07/09 08:33:49;;;;;;;7.18;4.45;;;;;;;;;;4931768;29;20040;-83
2023/07/09 08:36:15;;;;;;;7.80;4.07;;;;;;;;;;4932893;29;20587;-86
2023/07/09 08:38:41;;;;;;;8.60;4.30;;;;;;;;;;4931100;29;20024;-83
2023/07/09 08:41:07;;;;;;;8.60;4.30;;;;;;;;;;4923958;29;20041;-83
2023/07/09 08:44:19;;;;;;;9.27;3.90;;;29.90;94.20;;;;;;4935517;29;20036;-84
2023/07/09 08:46:45;;;;;;;6.63;3.75;;;;;;;;;;4854416;29;20068;-82
2023/07/09 08:49:19;;;;;;;5.82;3.90;;;30.20;93.70;;;;;;4922188;29;20056;-83
2023/07/09 08:51:47;;;;;;;8.32;4.28;;;30.40;93.20;;;;;;4936736;29;20420;-83
2023/07/09 08:54:27;;;;;;;5.50;3.70;;;30.40;93.00;;;;;;4936321;29;20046;-82
2023/07/09 08:56:54;;;;;;;8.75;4.97;;;30.60;92.80;;;;;;4937980;29;20423;-85
2023/07/09 08:59:20;;;;;;;8.93;4.15;;;;;;;;;;4943432;28;20676;-83
2023/07/09 09:01:52;;;;;;;6.72;3.83;;;30.80;92.60;;;;;;4940890;29;20058;-84
2023/07/09 09:04:27;;;;;;;8.30;4.65;;;;;;;;;;4933391;29;20035;-83
2023/07/09 09:07:44;;;;;;;6.88;4.25;;;31.10;91.80;;;;;;4924224;29;20032;-82
2023/07/09 09:10:20;;;;;;;6.20;3.60;;;31.30;91.50;;;;;;4889837;29;20047;-83
2023/07/09 09:13:10;;;;;;;6.50;3.63;;;31.50;91.30;;;;;;4915839;29;20507;-82
2023/07/09 09:15:39;;;;;;;8.23;4.22;;;31.60;91.30;;;;;;4917087;29;20024;-83
2023/07/09 09:18:27;;;;;;;6.90;3.67;;;31.70;91.00;;;;;;4931753;29;20449;-82
2023/07/09 09:21:06;;;;;;;8.93;4.60;;;;;;;;;;4934814;29;20148;-83
2023/07/09 09:23:37;;;;;;;;;;;31.90;90.60;;;;;;4936943;29;20119;-82
2023/07/09 19:06:21;;;;;;;9.23;5.38;;;;;;;;;;4892596;23;20407;-85
2023/07/09 19:08:47;;;;;;;7.75;4.18;;;;;;;;;;4890339;29;20033;-87
2023/07/09 19:11:14;;;;;;;8.50;4.30;;;;;;;;;;4880817;29;20109;-85
2023/07/09 19:13:43;;;;;;;9.82;4.50;;;;;;;;;;4888626;29;20035;-83
2023/07/09 19:16:35;;;;;;;7.07;4.32;;;28.70;91.10;;;;;;4876155;29;20028;-83
2023/07/09 19:19:01;;;;;;;8.82;4.25;;;;;;;;;;4834657;29;20064;-81
2023/07/09 19:21:30;;;;;;;12.13;5.07;;;28.50;91.70;;;;;;4880132;29;20096;-83
2023/07/09 19:23:56;;;;;;;9.33;4.40;;;;;;;;;;4842473;29;20037;-84
2023/07/09 19:26:24;;;;;;;8.48;4.68;;;28.40;92.30;;;;;;4873333;29;20124;-83
2023/07/09 19:28:50;;;;;;;10.93;5.25;;;;;;;;;;4864095;29;20055;-85
2023/07/09 19:31:17;;;;;;;9.10;4.90;;;;;;;;;;4883391;29;20032;-84
2023/07/09 19:33:43;;;;;;;12.05;4.75;;;;;;;;;;4882930;29;20061;-84
2023/07/09 19:36:21;;;;;;;8.63;4.45;;;;;;;;;;4862392;29;20064;-87
2023/07/09 19:38:47;;;;;;;11.15;4.85;;;;;;;;;;4866622;29;20133;-85
2023/07/09 19:41:15;;;;;;;10.95;4.93;;;;;;;;;;4869590;29;20108;-87
2023/07/09 19:43:41;;;;;;;9.50;5.68;;;;;;;;;;4874459;29;20076;-87
2023/07/09 19:46:19;;;;;;;10.32;4.85;;;27.90;94.10;;;;;;4893368;29;20049;-86
2023/07/09 19:48:46;;;;;;;10.13;4.85;;;;;;;;;;4878759;29;20040;-84
2023/07/09 19:51:13;;;;;;;10.70;4.68;;;;;;;;;;4865586;29;20039;-86
2023/07/09 19:53:39;;;;;;;9.07;4.80;;;;;;;;;;4860804;29;20112;-83
2023/07/09 19:56:05;;;;;;;13.07;5.72;;;;;;;;;;4856376;29;20070;-85
2023/07/09 19:58:31;;;;;;;15.30;9.93;;;;;;;;;;4862091;29;20057;-87
2023/07/09 20:01:00;;;;;;;11.00;5.45;;;27.80;95.30;;;;;;4871989;29;20223;-86
2023/07/09 20:03:29;;;;;;;12.82;5.63;;;27.70;95.30;;;;;;4854860;29;20059;-83
2023/07/09 20:05:56;;;;;;;14.80;5.30;;;27.60;95.40;;;;;;4861623;29;20041;-83
2023/07/09 20:08:23;;;;;;;10.05;5.05;;;27.60;95.70;;;;;;4879301;29;20029;-85
2023/07/09 20:10:54;;;;;;;12.40;5.68;;;27.50;95.90;;;;;;4863621;29;20025;-85
2023/07/09 20:13:30;;;;;;;8.45;5.18;;;27.50;96.00;;;;;;4854932;29;20033;-87
2023/07/09 20:15:56;;;;;;;8.10;5.00;;;;;;;;;;4873958;29;20061;-84
2023/07/09 20:18:23;;;;;;;16.58;5.63;;;;;;;;;;4858860;29;20029;-85
2023/07/09 20:20:53;;;;;;;10.27;4.95;;;;;;;;;;4863662;29;20044;-84
2023/07/09 20:23:21;;;;;;;10.20;4.97;;;;;;;;;;4880219;29;20037;-84
2023/07/09 20:25:48;;;;;;;9.98;5.05;;;;;;;;;;4871457;29;20480;-85
2023/07/09 20:28:20;;;;;;;10.13;4.45;;;;;;;;;;4878361;29;21425;-84
2023/07/09 20:30:46;;;;;;;10.82;5.10;;;;;;;;;;4864314;29;20017;-83
2023/07/09 20:33:12;;;;;;;10.65;4.65;;;;;;;;;;4855883;29;20039;-83
2023/07/09 20:35:38;;;;;;;11.13;5.10;;;;;;;;;;4856667;29;20539;-84
2023/07/09 20:38:18;;;;;;;9.10;4.60;;;;;;;;;;4870123;29;20096;-86
2023/07/09 20:40:45;;;;;;;8.68;4.93;;;;;;;;;;4874013;29;20079;-84
2023/07/09 20:43:28;;;;;;;11.88;5.20;;;;;;;;;;4857214;29;21626;-86
2023/07/09 20:45:57;;;;;;;9.88;5.20;;;;;;;;;;4873883;29;20569;-85
2023/07/09 20:48:24;;;;;;;11.32;4.82;;;;;;;;;;4876114;29;20111;-84
2023/07/09 20:50:51;;;;;;;15.45;5.32;;;;;;;;;;4862470;29;20029;-84
2023/07/09 20:53:18;;;;;;;9.75;4.88;;;26.90;98.90;;;;;;4878403;29;20433;-84
2023/07/09 20:55:44;;;;;;;10.27;5.30;;;;;;;;;;4858604;29;20122;-88
2023/07/09 20:58:18;;;;;;;10.95;5.40;;;;;;;;;;4859957;29;20096;-86
2023/07/09 21:00:44;;;;;;;13.80;5.65;;;;;;;;;;4877564;29;20037;-85
2023/07/09 21:03:13;;;;;;;11.35;4.93;;;;;;;;;;4857995;29;20021;-83
2023/07/09 21:05:39;;;;;;;13.00;5.45;;;;;;;;;;4875280;29;20041;-86
2023/07/09 21:08:15;;;;;;;11.90;6.25;;;;;;;;;;4854444;29;20036;-83
2023/07/09 21:10:42;;;;;;;13.98;6.40;;;;;;;;;;4871948;29;20535;-82
2023/07/09 21:13:12;;;;;;;14.35;6.45;;;;;;;;;;4857491;29;20040;-85
2023/07/09 21:15:39;;;;;;;19.48;7.70;;;;;;;;;;4887731;29;20077;-88
2023/07/09 21:18:06;;;;;;;18.92;8.10;;;;;;;;;;4877257;29;20030;-89
2023/07/09 21:20:32;;;;;;;21.80;8.30;;;;;;;;;;4892738;29;20029;-89
2023/07/09 21:22:59;;;;;;;21.17;8.60;;;;;;;;;;4893722;29;20037;-88
2023/07/09 21:25:25;;;;;;;26.40;8.50;;;;;;;;;;4893839;29;20048;-87
2023/07/09 21:27:52;;;;;;;22.33;8.98;;;;;;;;;;4892276;29;20065;-87
2023/07/09 21:30:31;;;;;;;18.60;7.85;;;;;;;;;;4880920;29;20045;-82
2023/07/09 21:32:57;;;;;;;18.00;6.73;;;;;;;;;;4870780;29;20540;-84
2023/07/09 21:35:25;;;;;;;20.13;7.55;;;26.30;99.90;;;;;;4856230;29;20043;-81
2023/07/09 21:37:53;;;;;;;18.42;7.65;;;26.20;99.90;;;;;;4873385;29;20527;-84
2023/07/09 21:40:30;;;;;;;16.30;6.43;;;26.20;99.90;;;;;;4873670;29;20041;-82
2023/07/09 21:42:57;;;;;;;15.32;5.63;;;;;;;;;;4855177;29;20055;-79
2023/07/09 21:45:27;;;;;;;10.27;5.18;;;26.10;99.90;;;;;;4874952;29;20028;-80
2023/07/09 21:47:54;;;;;;;13.68;5.70;;;;;;;;;;4874849;29;20035;-81
2023/07/09 21:50:21;;;;;;;10.00;5.13;;;26.00;99.90;;;;;;4859175;29;20508;-82
2023/07/09 21:52:49;;;;;;;12.70;5.63;;;;;;;;;;4857421;29;20040;-79
2023/07/09 21:55:18;;;;;;;10.57;5.47;;;26.00;99.90;;;;;;4874727;29;20528;-81
2023/07/09 21:57:44;;;;;;;13.70;5.78;;;;;;;;;;4878919;29;20093;-80
2023/07/09 22:00:18;;;;;;;11.10;5.80;;;25.90;99.90;;;;;;4862467;29;20064;-80
2023/07/09 22:02:45;;;;;;;13.90;5.97;;;;;;;;;;4863388;29;20064;-82
2023/07/09 22:05:18;;;;;;;13.98;6.45;;;25.90;99.90;;;;;;4859301;29;20037;-80
2023/07/09 22:07:43;;;;;;;11.35;6.00;;;25.80;99.90;;;;;;4862647;29;20058;-80
2023/07/09 22:10:12;;;;;;;12.45;5.43;;;25.80;99.90;;;;;;4876635;29;20029;-79
2023/07/09 22:12:39;;;;;;;10.45;6.10;;;25.80;99.90;;;;;;4857314;29;20598;-80
2023/07/09 22:15:24;;;;;;;12.13;5.95;;;25.80;99.90;;;;;;4868946;29;20048;-81
2023/07/09 22:17:50;;;;;;;11.77;5.60;;;;;;;;;;4873586;29;20057;-82
2023/07/09 22:20:20;;;;;;;9.63;5.65;;;25.80;99.90;;;;;;4876122;29;20049;-79
2023/07/09 22:22:46;;;;;;;;;;;26.10;99.90;;;;;;4859093;29;20036;-80
2023/07/09 22:25:31;;;;;;;11.45;5.13;;;25.80;99.90;;;;;;4870195;29;19920;-82
2023/07/09 22:27:57;;;;;;;16.75;8.02;;;;;;;;;;4874265;29;20036;-81
2023/07/09 22:30:26;;;;;;;10.48;5.10;;;25.60;99.90;;;;;;4875816;29;20035;-80
2023/07/09 22:32:54;;;;;;;12.17;5.30;;;25.50;99.90;;;;;;4863202;29;20029;-80
2023/07/09 22:35:22;;;;;;;9.25;5.03;;;;;;;;;;4861847;29;20357;-79
2023/07/09 22:37:48;;;;;;;10.43;5.03;;;;;;;;;;4881420;29;20029;-80
2023/07/09 22:40:24;;;;;;;11.05;5.28;;;25.30;99.90;;;;;;4877044;29;20033;-81
2023/07/09 22:42:51;;;;;;;8.27;4.72;;;;;;;;;;4865679;29;20037;-80
2023/07/09 22:45:18;;;;;;;13.13;5.70;;;25.20;99.90;;;;;;4866135;29;21001;-80
2023/07/09 22:47:47;;;;;;;7.45;5.03;;;25.20;99.90;;;;;;4868217;29;20029;-80
2023/07/09 22:50:17;;;;;;;14.25;5.10;;;25.10;99.90;;;;;;4864695;29;20484;-80
2023/07/09 22:52:43;;;;;;;;;;;25.10;99.90;;;;;;4885765;29;20092;-80
2023/07/09 22:55:29;;;;;;;10.93;5.55;;;25.10;99.90;;;;;;4864976;29;20018;-79
2023/07/09 22:58:03;;;;;;;9.68;5.10;;;;;;;;;;4884024;29;20072;-79
2023/07/09 23:00:34;;;;;;;13.77;5.47;;;;;;;;;;4886703;29;20041;-79
2023/07/09 23:03:01;;;;;;;10.80;5.15;;;;;;;;;;4883017;29;20507;-79
2023/07/09 23:05:27;;;;;;;11.70;6.35;;;;;;;;;;4883204;29;20037;-79
2023/07/09 23:07:56;;;;;;;9.20;4.65;;;;;;;;;;4868122;29;20032;-79
2023/07/09 23:10:22;;;;;;;10.20;5.07;;;;;;;;;;4867467;29;20029;-79
2023/07/09 23:12:48;;;;;;;10.68;5.72;;;;;;;;;;4883722;29;20555;-80
2023/07/09 23:15:29;;;;;;;9.88;5.03;;;;;;;;;;4865359;29;20496;-80
2023/07/09 23:17:58;;;;;;;16.00;4.75;;;;;;;;;;4873499;29;20097;-80
2023/07/09 23:20:25;;;;;;;9.32;5.45;;;;;;;;;;4885093;29;20117;-80
2023/07/09 23:22:53;;;;;;;12.68;5.30;;;;;;;;;;4860208;29;20053;-80
2023/07/09 23:25:19;;;;;;;10.52;5.57;;;;;;;;;;4869481;29;20123;-79
2023/07/09 23:27:49;;;;;;;10.30;4.93;;;;;;;;;;4885926;29;20383;-79
2023/07/09 23:30:18;;;;;;;8.77;4.55;;;;;;;;;;4883820;29;20045;-79
2023/07/09 23:32:44;;;;;;;12.93;5.22;;;;;;;;;;4869515;29;20485;-79
2023/07/09 23:35:21;;;;;;;10.55;5.70;;;;;;;;;;4876326;29;20400;-79
2023/07/09 23:37:49;;;;;;;10.07;5.03;;;;;;;;;;4884709;29;20045;-79
2023/07/09 23:40:16;;;;;;;10.43;5.20;;;;;;;;;;4870461;29;20037;-79
2023/07/09 23:42:44;;;;;;;8.93;5.40;;;;;;;;;;4882333;29;20112;-79
2023/07/09 23:45:15;;;;;;;11.38;5.10;;;;;;;;;;4867079;29;20043;-78
2023/07/09 23:47:41;;;;;;;8.57;4.85;;;;;;;;;;4880182;29;20045;-80
2023/07/09 23:50:14;;;;;;;8.38;4.30;;;;;;;;;;4882803;29;20017;-79
2023/07/09 23:52:41;;;;;;;8.57;4.65;;;;;;;;;;4881517;29;20035;-78
2023/07/09 23:55:07;;;;;;;10.48;5.10;;;;;;;;;;4867201;29;20064;-78
2023/07/09 23:57:34;;;;;;;8.57;4.72;;;;;;;;;;4882647;29;20033;-79
